Time;durP1;ratioP1;P1;durP2;ratioP2;P2;SDS_P1;SDS_P2;PMS_P1;PMS_P2;Temp;Humidity;BMP_temperature;BMP_pressure;BME280_temperature;BME280_humidity;BME280_pressure;Samples;Min_cycle;Max_cycle;Signal;HPM_P1;HPM_P2
2023/12/10 00:00:56;;;;;;;19.60;1.85;;;8.80;99.90;;;;;;5046072;28;20478;-82
2023/12/10 00:03:21;;;;;;;15.63;1.33;;;8.80;99.90;;;;;;5041525;28;20052;-82
2023/12/10 00:05:47;;;;;;;18.77;1.27;;;8.70;99.90;;;;;;5045015;28;20061;-83
2023/12/10 00:08:13;;;;;;;14.68;1.48;;;8.80;99.90;;;;;;5045981;28;20052;-81
2023/12/10 00:10:39;;;;;;;11.30;1.33;;;8.80;99.90;;;;;;5045708;28;20025;-81
2023/12/10 00:13:05;;;;;;;17.65;2.00;;;8.80;99.90;;;;;;5046311;28;20032;-81
2023/12/10 00:15:31;;;;;;;28.58;3.03;;;8.80;99.90;;;;;;5042048;28;20053;-80
2023/12/10 00:17:57;;;;;;;19.17;1.45;;;8.90;99.90;;;;;;5078673;28;20504;-82
2023/12/10 00:20:22;;;;;;;30.15;2.17;;;8.90;99.90;;;;;;5046701;28;20025;-82
2023/12/10 00:22:48;;;;;;;15.90;1.98;;;8.90;99.90;;;;;;5047161;28;20017;-80
2023/12/10 00:25:14;;;;;;;19.63;1.42;;;8.90;99.90;;;;;;5047656;28;20032;-82
2023/12/10 00:27:40;;;;;;;13.50;1.42;;;8.90;99.90;;;;;;5045550;28;20021;-81
2023/12/10 00:30:06;;;;;;;16.73;2.05;;;8.90;99.90;;;;;;5043042;28;20588;-82
2023/12/10 00:32:32;;;;;;;21.48;1.30;;;8.90;99.90;;;;;;5042963;28;20044;-81
2023/12/10 00:34:57;;;;;;;19.98;2.63;;;8.90;99.90;;;;;;5045075;28;20489;-80
2023/12/10 00:37:23;;;;;;;24.35;3.17;;;9.00;99.90;;;;;;5027571;28;20025;-82
2023/12/10 00:39:49;;;;;;;23.50;3.25;;;9.00;99.90;;;;;;5047295;28;20249;-83
2023/12/10 00:42:15;;;;;;;24.15;2.65;;;9.00;99.90;;;;;;5062381;28;20021;-81
2023/12/10 00:44:40;;;;;;;22.17;1.70;;;9.00;99.90;;;;;;5036974;28;20465;-81
2023/12/10 00:47:06;;;;;;;26.95;3.42;;;8.90;99.90;;;;;;5050795;28;20401;-82
2023/12/10 00:49:32;;;;;;;19.90;2.08;;;8.90;99.90;;;;;;5064000;28;20412;-82
2023/12/10 00:51:57;;;;;;;26.27;2.58;;;8.80;99.90;;;;;;5033802;28;20017;-81
2023/12/10 00:54:24;;;;;;;25.58;3.35;;;8.70;99.90;;;;;;5050432;28;20029;-82
2023/12/10 00:56:49;;;;;;;19.45;2.42;;;8.80;99.90;;;;;;5047743;28;20075;-82
2023/12/10 00:59:15;;;;;;;18.88;1.92;;;8.70;99.90;;;;;;5065575;28;20025;-82
2023/12/10 01:01:41;;;;;;;23.27;2.60;;;8.60;99.90;;;;;;5049614;28;20075;-83
2023/12/10 01:04:07;;;;;;;27.58;2.67;;;8.70;99.90;;;;;;5046580;28;20063;-81
2023/12/10 01:06:32;;;;;;;17.52;1.95;;;8.80;99.90;;;;;;5047147;28;20032;-81
2023/12/10 01:08:58;;;;;;;29.23;3.20;;;8.70;99.90;;;;;;5049097;28;20029;-80
2023/12/10 01:11:24;;;;;;;16.77;1.98;;;8.70;99.90;;;;;;5040565;28;20040;-80
2023/12/10 01:13:50;;;;;;;19.92;1.88;;;8.60;99.90;;;;;;5047539;28;20112;-79
2023/12/10 01:16:16;;;;;;;21.85;1.90;;;8.70;99.90;;;;;;5047730;28;20117;-79
2023/12/10 01:18:43;;;;;;;25.67;2.92;;;8.60;99.90;;;;;;5081032;28;20055;-81
2023/12/10 01:21:09;;;;;;;21.40;2.28;;;8.70;99.90;;;;;;5045499;28;20024;-79
2023/12/10 01:23:38;;;;;;;24.33;2.50;;;8.80;99.90;;;;;;5064724;28;20028;-80
2023/12/10 01:26:06;;;;;;;20.20;1.95;;;8.70;99.90;;;;;;5050019;28;20111;-80
2023/12/10 01:28:33;;;;;;;21.88;2.25;;;8.60;99.90;;;;;;5038546;28;20029;-81
2023/12/10 01:30:59;;;;;;;21.13;2.05;;;8.60;99.90;;;;;;5077731;28;20029;-80
2023/12/10 01:33:25;;;;;;;23.25;1.92;;;8.60;99.90;;;;;;5049526;28;20021;-80
2023/12/10 01:35:51;;;;;;;21.52;2.53;;;8.60;99.90;;;;;;5050316;28;20112;-80
2023/12/10 01:38:17;;;;;;;21.98;1.42;;;8.60;99.90;;;;;;5047439;28;20484;-80
2023/12/10 01:40:42;;;;;;;18.73;1.60;;;8.50;99.90;;;;;;5038986;28;20028;-84
2023/12/10 01:43:09;;;;;;;26.60;2.10;;;8.50;99.90;;;;;;5049588;28;20509;-82
2023/12/10 01:45:35;;;;;;;25.10;1.70;;;8.50;99.90;;;;;;5036617;28;20028;-79
2023/12/10 01:48:04;;;;;;;13.35;1.15;;;8.50;99.90;;;;;;5043559;28;20041;-79
2023/12/10 01:50:33;;;;;;;21.05;2.30;;;8.50;99.90;;;;;;5046340;28;20041;-79
2023/12/10 01:52:59;;;;;;;20.05;1.27;;;8.50;99.90;;;;;;5047620;28;20069;-79
2023/12/10 01:55:25;;;;;;;14.88;1.27;;;8.60;99.90;;;;;;5075721;28;20025;-80
2023/12/10 01:57:52;;;;;;;20.98;1.75;;;8.50;99.90;;;;;;5043996;28;20032;-79
2023/12/10 02:00:18;;;;;;;18.83;1.33;;;8.50;99.90;;;;;;5044222;28;20074;-79
2023/12/10 02:02:44;;;;;;;23.92;1.92;;;8.50;99.90;;;;;;5047579;28;20075;-82
2023/12/10 02:05:10;;;;;;;18.17;1.80;;;8.50;99.90;;;;;;5045882;28;20030;-80
2023/12/10 02:07:37;;;;;;;16.73;1.10;;;8.50;99.90;;;;;;5045586;28;20094;-81
2023/12/10 02:10:06;;;;;;;23.25;2.03;;;8.50;99.90;;;;;;5078752;28;20388;-79
2023/12/10 02:12:34;;;;;;;16.30;1.15;;;8.40;99.90;;;;;;5047846;28;20033;-79
2023/12/10 02:15:15;;;;;;;17.65;1.77;;;8.30;99.90;;;;;;5047777;28;20477;-80
2023/12/10 02:17:41;;;;;;;17.73;1.10;;;8.30;99.90;;;;;;5047935;28;20029;-80
2023/12/10 02:20:14;;;;;;;16.13;0.90;;;8.30;99.90;;;;;;5049373;28;20028;-79
2023/12/10 02:23:17;;;;;;;19.75;2.00;;;8.20;99.90;;;;;;5045840;28;20473;-83
2023/12/10 02:25:43;;;;;;;17.98;1.02;;;8.20;99.90;;;;;;5029804;28;20059;-80
2023/12/10 02:28:10;;;;;;;14.88;1.35;;;8.20;99.90;;;;;;5040725;28;20565;-78
2023/12/10 02:30:36;;;;;;;19.73;1.83;;;8.20;99.90;;;;;;5048691;28;20025;-81
2023/12/10 02:33:03;;;;;;;18.67;1.45;;;8.10;99.90;;;;;;5076728;28;20393;-80
2023/12/10 02:35:29;;;;;;;12.93;1.38;;;8.10;99.90;;;;;;5047580;28;20127;-80
2023/12/10 02:37:55;;;;;;;21.00;1.63;;;8.10;99.90;;;;;;5035482;28;20043;-80
2023/12/10 02:40:21;;;;;;;19.63;1.35;;;8.10;99.90;;;;;;5046876;28;20106;-82
2023/12/10 02:42:47;;;;;;;20.20;1.73;;;8.10;99.90;;;;;;5054479;28;20453;-83
2023/12/10 02:45:14;;;;;;;17.85;1.40;;;8.20;99.90;;;;;;5041736;28;20381;-81
2023/12/10 02:47:40;;;;;;;19.25;1.88;;;8.20;99.90;;;;;;5079031;28;20048;-81
2023/12/10 02:50:07;;;;;;;17.33;1.65;;;8.10;99.90;;;;;;5046151;28;20520;-79
2023/12/10 02:52:35;;;;;;;19.38;1.27;;;8.20;99.90;;;;;;5046453;28;20025;-84
2023/12/10 02:55:01;;;;;;;17.50;1.70;;;8.10;99.90;;;;;;5064971;28;20033;-80
2023/12/10 02:57:26;;;;;;;13.18;0.93;;;8.10;99.90;;;;;;5031837;28;20504;-80
2023/12/10 02:59:52;;;;;;;15.55;1.52;;;8.10;99.90;;;;;;5046560;28;20048;-79
2023/12/10 03:02:18;;;;;;;17.15;1.25;;;8.10;99.90;;;;;;5075922;28;20049;-82
2023/12/10 03:04:43;;;;;;;15.70;1.50;;;8.10;99.90;;;;;;5040669;28;20035;-82
2023/12/10 03:07:09;;;;;;;20.73;1.67;;;8.10;99.90;;;;;;5046146;28;20039;-79
2023/12/10 03:09:35;;;;;;;20.08;1.30;;;8.10;99.90;;;;;;5076207;28;20588;-83
2023/12/10 03:12:01;;;;;;;16.92;1.80;;;8.10;99.90;;;;;;5047819;28;20025;-81
2023/12/10 03:14:27;;;;;;;12.75;0.90;;;8.00;99.90;;;;;;5039997;28;20021;-81
2023/12/10 03:16:52;;;;;;;19.77;1.40;;;8.00;99.90;;;;;;5034112;28;20029;-79
2023/12/10 03:19:18;;;;;;;18.63;0.90;;;8.00;99.90;;;;;;5074897;28;20328;-79
2023/12/10 03:21:44;;;;;;;21.88;1.10;;;8.00;99.90;;;;;;5039826;28;20116;-84
2023/12/10 03:24:09;;;;;;;23.15;2.35;;;8.00;99.90;;;;;;5063681;28;20059;-80
2023/12/10 03:26:35;;;;;;;22.13;2.45;;;8.00;99.90;;;;;;5064063;28;20028;-81
2023/12/10 03:29:01;;;;;;;17.15;1.50;;;8.00;99.90;;;;;;5077008;28;20071;-81
2023/12/10 03:31:26;;;;;;;25.67;2.25;;;8.00;99.90;;;;;;5045651;28;20029;-80
2023/12/10 03:33:52;;;;;;;16.38;1.58;;;8.10;99.90;;;;;;5046988;28;20462;-80
2023/12/10 03:36:18;;;;;;;17.50;1.55;;;8.00;99.90;;;;;;5047375;28;20029;-81
2023/12/10 03:38:44;;;;;;;21.52;1.67;;;8.00;99.90;;;;;;5046750;28;20032;-81
2023/12/10 03:41:10;;;;;;;19.02;1.42;;;8.00;99.90;;;;;;5063031;28;20033;-80
2023/12/10 03:43:35;;;;;;;18.85;1.52;;;8.10;99.90;;;;;;5042741;28;20425;-80
2023/12/10 03:46:01;;;;;;;18.58;1.52;;;8.00;99.90;;;;;;5061447;28;20032;-79
2023/12/10 03:48:27;;;;;;;20.67;1.92;;;8.10;99.90;;;;;;5043411;28;20029;-80
2023/12/10 03:50:52;;;;;;;25.70;1.75;;;8.10;99.90;;;;;;5042180;28;20025;-80
2023/12/10 03:53:18;;;;;;;19.80;1.48;;;8.20;99.90;;;;;;5039172;28;20075;-83
2023/12/10 03:55:44;;;;;;;23.55;1.92;;;8.10;99.90;;;;;;5046319;28;20102;-81
2023/12/10 03:58:09;;;;;;;17.70;2.20;;;8.10;99.90;;;;;;5044745;28;20029;-79
2023/12/10 04:00:35;;;;;;;24.75;2.30;;;8.20;99.90;;;;;;5064311;28;20124;-84
2023/12/10 04:03:01;;;;;;;18.92;1.10;;;8.30;99.90;;;;;;5045336;28;20106;-82
2023/12/10 04:05:27;;;;;;;24.45;1.73;;;8.20;99.90;;;;;;5046241;28;20440;-82
2023/12/10 04:07:52;;;;;;;17.90;1.00;;;8.20;99.90;;;;;;5047424;28;20021;-81
2023/12/10 04:10:18;;;;;;;33.03;2.58;;;8.20;99.90;;;;;;5044280;28;20044;-84
2023/12/10 04:12:44;;;;;;;17.25;1.00;;;8.20;99.90;;;;;;5042117;28;20035;-80
2023/12/10 04:15:10;;;;;;;22.83;2.05;;;8.20;99.90;;;;;;5063584;28;20035;-80
2023/12/10 04:17:36;;;;;;;23.30;1.58;;;8.30;99.90;;;;;;5047523;28;20041;-83
2023/12/10 04:20:03;;;;;;;24.23;1.83;;;8.30;99.90;;;;;;5047658;28;20453;-81
2023/12/10 04:22:29;;;;;;;20.20;2.17;;;8.20;99.90;;;;;;5050153;28;20116;-79
2023/12/10 04:24:54;;;;;;;22.15;2.55;;;8.20;99.90;;;;;;5039001;28;20136;-81
2023/12/10 04:27:23;;;;;;;22.77;2.38;;;8.20;99.90;;;;;;5038630;28;20354;-83
2023/12/10 04:29:49;;;;;;;23.67;1.60;;;8.20;99.90;;;;;;5049857;28;20402;-82
2023/12/10 04:32:15;;;;;;;16.83;1.52;;;8.30;99.90;;;;;;5051344;28;20108;-84
2023/12/10 04:34:41;;;;;;;24.55;2.83;;;8.30;99.90;;;;;;5050191;28;20472;-81
2023/12/10 04:37:06;;;;;;;24.08;1.83;;;8.30;99.90;;;;;;5036614;28;20083;-81
2023/12/10 04:39:32;;;;;;;25.77;2.03;;;8.30;99.90;;;;;;5047357;28;20470;-81
2023/12/10 04:41:58;;;;;;;17.15;1.90;;;8.20;99.90;;;;;;5045553;28;20542;-81
2023/12/10 04:44:24;;;;;;;18.05;1.63;;;8.30;99.90;;;;;;5035380;28;20029;-80
2023/12/10 04:46:49;;;;;;;15.68;1.25;;;8.40;99.90;;;;;;5046673;28;20040;-82
2023/12/10 04:49:15;;;;;;;22.25;2.40;;;8.30;99.90;;;;;;5050621;28;20032;-81
2023/12/10 04:51:41;;;;;;;19.40;2.35;;;8.40;99.90;;;;;;5045185;28;20071;-81
2023/12/10 04:54:06;;;;;;;26.83;1.77;;;8.30;99.90;;;;;;5048820;28;20501;-84
2023/12/10 04:56:32;;;;;;;22.75;3.05;;;8.30;99.90;;;;;;5050576;28;20021;-82
2023/12/10 04:58:58;;;;;;;24.40;2.72;;;8.40;99.90;;;;;;5048267;28;20017;-83
2023/12/10 05:01:24;;;;;;;23.98;1.60;;;8.30;99.90;;;;;;5044909;28;20619;-83
2023/12/10 05:03:50;;;;;;;26.38;1.90;;;8.40;99.90;;;;;;5048058;28;20110;-81
2023/12/10 05:06:16;;;;;;;16.77;1.27;;;8.40;99.90;;;;;;5037972;28;20055;-79
2023/12/10 05:08:42;;;;;;;18.83;2.42;;;8.40;99.90;;;;;;5048966;28;20070;-80
2023/12/10 05:11:08;;;;;;;26.13;1.45;;;8.40;99.90;;;;;;5077332;28;20114;-80
2023/12/10 05:13:34;;;;;;;19.60;1.40;;;8.30;99.90;;;;;;5050543;28;20059;-81
2023/12/10 05:16:00;;;;;;;22.88;1.48;;;8.40;99.90;;;;;;5047993;28;20021;-79
2023/12/10 05:18:25;;;;;;;23.90;1.42;;;8.40;99.90;;;;;;5080674;28;20032;-80
2023/12/10 05:20:52;;;;;;;15.73;1.50;;;8.30;99.90;;;;;;5047933;28;20031;-82
2023/12/10 05:23:17;;;;;;;21.23;2.45;;;8.30;99.90;;;;;;5062041;28;20421;-82
2023/12/10 05:25:43;;;;;;;23.35;1.65;;;8.30;99.90;;;;;;5049340;28;20033;-83
2023/12/10 05:28:09;;;;;;;16.85;1.45;;;8.30;99.90;;;;;;5049735;28;20032;-83
2023/12/10 05:30:34;;;;;;;18.40;1.50;;;8.30;99.90;;;;;;5075874;28;20029;-82
2023/12/10 05:33:00;;;;;;;19.73;1.42;;;8.30;99.90;;;;;;5047007;28;20306;-79
2023/12/10 05:35:26;;;;;;;22.42;1.88;;;8.40;99.90;;;;;;5038047;28;20428;-80
2023/12/10 05:37:52;;;;;;;27.73;2.17;;;8.30;99.90;;;;;;5047383;28;20025;-82
2023/12/10 05:40:18;;;;;;;22.02;1.42;;;8.50;99.90;;;;;;5048224;28;20083;-81
2023/12/10 05:42:43;;;;;;;26.30;1.92;;;8.40;99.90;;;;;;5047021;28;20025;-82
2023/12/10 05:45:09;;;;;;;18.40;1.40;;;8.40;99.90;;;;;;5049829;28;20029;-81
2023/12/10 05:47:35;;;;;;;17.15;2.08;;;8.50;99.90;;;;;;5045314;28;20389;-83
2023/12/10 05:50:01;;;;;;;25.08;1.45;;;8.50;99.90;;;;;;5048126;28;20063;-82
2023/12/10 05:52:27;;;;;;;24.70;2.53;;;8.50;99.90;;;;;;5061630;28;20066;-82
2023/12/10 05:54:52;;;;;;;20.08;2.20;;;8.40;99.90;;;;;;5044570;28;20071;-80
2023/12/10 05:57:18;;;;;;;23.85;2.40;;;8.50;99.90;;;;;;5044219;28;20028;-82
2023/12/10 05:59:44;;;;;;;22.77;1.73;;;8.50;99.90;;;;;;5076549;28;20052;-79
2023/12/10 06:02:10;;;;;;;17.48;1.38;;;8.40;99.90;;;;;;5046880;28;20033;-83
2023/12/10 06:04:36;;;;;;;24.35;2.10;;;8.50;99.90;;;;;;5044059;28;20038;-81
2023/12/10 06:07:01;;;;;;;23.52;1.40;;;8.50;99.90;;;;;;5059361;28;20496;-83
2023/12/10 06:09:27;;;;;;;25.85;2.65;;;8.50;99.90;;;;;;5049502;28;20043;-85
2023/12/10 06:11:53;;;;;;;23.05;1.67;;;8.40;99.90;;;;;;5048077;28;20028;-81
2023/12/10 06:14:19;;;;;;;20.15;2.08;;;8.50;99.90;;;;;;5076715;28;20096;-83
2023/12/10 06:16:45;;;;;;;27.20;1.77;;;8.40;99.90;;;;;;5048981;28;20025;-80
2023/12/10 06:19:11;;;;;;;14.75;1.50;;;8.50;99.90;;;;;;5048502;28;20765;-83
2023/12/10 06:21:37;;;;;;;18.02;1.70;;;8.50;99.90;;;;;;5033635;28;20618;-83
2023/12/10 06:24:04;;;;;;;16.58;1.83;;;8.50;99.90;;;;;;5045579;28;20013;-82
2023/12/10 06:26:30;;;;;;;21.35;1.88;;;8.50;99.90;;;;;;5037804;28;20056;-82
2023/12/10 06:28:56;;;;;;;26.10;2.28;;;8.60;99.90;;;;;;5047907;28;20040;-87
2023/12/10 06:31:22;;;;;;;17.55;1.40;;;8.50;99.90;;;;;;5077968;28;20040;-83
2023/12/10 06:33:48;;;;;;;20.50;1.90;;;8.60;99.90;;;;;;5045831;28;20120;-85
2023/12/10 06:36:14;;;;;;;26.33;2.30;;;8.60;99.90;;;;;;5043892;28;20479;-84
2023/12/10 06:38:40;;;;;;;17.55;1.48;;;8.60;99.90;;;;;;5034934;28;20056;-84
2023/12/10 06:41:06;;;;;;;19.48;1.45;;;8.50;99.90;;;;;;5049529;28;20059;-80
2023/12/10 06:43:32;;;;;;;21.92;1.65;;;8.60;99.90;;;;;;5036469;28;20389;-80
2023/12/10 06:45:58;;;;;;;19.05;2.13;;;8.50;99.90;;;;;;5047586;28;20025;-80
2023/12/10 06:48:25;;;;;;;22.25;1.98;;;8.60;99.90;;;;;;5043332;28;20048;-81
2023/12/10 06:50:52;;;;;;;17.60;2.35;;;8.60;99.90;;;;;;5052789;28;20041;-80
2023/12/10 06:53:17;;;;;;;19.80;1.55;;;8.60;99.90;;;;;;5037684;28;20493;-79
2023/12/10 06:55:44;;;;;;;23.83;3.17;;;8.70;99.90;;;;;;5047548;28;20029;-80
2023/12/10 06:58:10;;;;;;;20.60;2.40;;;8.70;99.90;;;;;;5046553;28;20070;-79
2023/12/10 07:00:36;;;;;;;15.88;2.28;;;8.80;99.90;;;;;;5036269;28;20041;-80
2023/12/10 07:03:01;;;;;;;19.08;1.35;;;8.70;99.90;;;;;;5025975;28;20478;-80
2023/12/10 07:05:27;;;;;;;24.50;2.28;;;8.70;99.90;;;;;;5040635;28;20028;-80
2023/12/10 07:07:53;;;;;;;17.52;1.02;;;8.80;99.90;;;;;;5046011;28;20028;-80
2023/12/10 07:10:18;;;;;;;25.83;1.83;;;8.80;99.90;;;;;;5047377;28;20163;-81
2023/12/10 07:12:44;;;;;;;18.80;1.80;;;8.80;99.90;;;;;;5042754;28;20024;-81
2023/12/10 07:15:10;;;;;;;19.13;1.50;;;8.80;99.90;;;;;;5045315;28;20481;-80
2023/12/10 07:17:36;;;;;;;24.65;1.77;;;8.80;99.90;;;;;;5043025;28;20025;-81
2023/12/10 07:20:02;;;;;;;25.52;2.33;;;8.70;99.90;;;;;;5043657;28;20504;-82
2023/12/10 07:22:28;;;;;;;20.15;1.13;;;8.80;99.90;;;;;;5062028;28;20119;-81
2023/12/10 07:24:54;;;;;;;17.70;1.67;;;8.80;99.10;;;;;;5062678;28;20155;-81
2023/12/10 07:27:19;;;;;;;15.52;1.70;;;8.80;98.30;;;;;;5046181;28;20493;-79
2023/12/10 07:29:45;;;;;;;14.20;1.60;;;8.90;96.60;;;;;;5047995;28;20033;-82
2023/12/10 07:32:11;;;;;;;22.35;1.55;;;8.80;97.10;;;;;;5042327;28;20044;-81
2023/12/10 07:34:37;;;;;;;23.50;1.40;;;8.80;97.80;;;;;;5063576;28;20112;-84
2023/12/10 07:37:03;;;;;;;19.00;2.08;;;8.80;97.40;;;;;;5048307;28;20527;-82
2023/12/10 07:39:29;;;;;;;15.48;1.50;;;8.90;96.10;;;;;;5034351;28;20447;-83
2023/12/10 07:41:55;;;;;;;17.10;0.80;;;8.80;95.90;;;;;;5036784;28;20029;-82
2023/12/10 07:44:20;;;;;;;24.40;1.30;;;8.80;95.50;;;;;;5047224;28;20029;-83
2023/12/10 07:46:46;;;;;;;17.67;1.85;;;8.90;94.60;;;;;;5043388;28;20037;-81
2023/12/10 07:49:12;;;;;;;19.00;2.33;;;8.90;94.40;;;;;;5045971;28;20029;-81
2023/12/10 07:51:38;;;;;;;14.07;1.08;;;8.90;93.80;;;;;;5047395;28;20033;-84
2023/12/10 07:54:03;;;;;;;23.23;1.27;;;8.80;94.30;;;;;;5045881;28;20392;-81
2023/12/10 07:56:30;;;;;;;18.70;1.67;;;8.80;94.60;;;;;;5047844;28;20033;-82
2023/12/10 07:58:56;;;;;;;23.08;2.38;;;8.80;94.40;;;;;;5037142;28;20021;-81
2023/12/10 08:01:22;;;;;;;20.25;1.10;;;8.70;95.20;;;;;;5048939;28;20056;-81
2023/12/10 08:03:47;;;;;;;21.48;1.88;;;8.80;95.20;;;;;;5049925;28;20063;-82
2023/12/10 08:06:13;;;;;;;15.30;1.40;;;8.80;94.50;;;;;;5048293;28;20550;-84
2023/12/10 08:08:39;;;;;;;17.40;1.13;;;8.80;93.70;;;;;;5040566;28;20032;-83
2023/12/10 08:11:05;;;;;;;21.40;1.33;;;8.90;92.70;;;;;;5051007;28;20028;-84
2023/12/10 08:13:31;;;;;;;15.98;1.42;;;8.90;92.30;;;;;;5050372;28;20021;-83
2023/12/10 08:15:57;;;;;;;17.50;1.42;;;8.90;91.80;;;;;;5044389;28;20032;-83
2023/12/10 08:18:24;;;;;;;15.80;1.00;;;8.90;91.90;;;;;;5078415;28;20021;-82
2023/12/10 08:20:50;;;;;;;18.20;1.90;;;8.80;93.50;;;;;;5050464;28;20025;-83
2023/12/10 08:23:15;;;;;;;12.48;0.98;;;8.80;93.00;;;;;;5037509;28;20381;-82
2023/12/10 08:25:41;;;;;;;11.88;1.40;;;8.80;92.90;;;;;;5048275;28;20544;-82
2023/12/10 08:28:07;;;;;;;17.02;1.15;;;8.80;92.20;;;;;;5065825;28;20541;-81
2023/12/10 08:30:33;;;;;;;23.45;2.03;;;8.90;91.50;;;;;;5047563;28;20112;-82
2023/12/10 08:32:59;;;;;;;16.35;1.20;;;8.90;90.90;;;;;;5050494;28;20112;-82
2023/12/10 08:35:25;;;;;;;18.30;1.40;;;8.90;91.60;;;;;;5042596;28;20133;-82
2023/12/10 08:37:51;;;;;;;17.20;1.23;;;8.90;91.70;;;;;;5065968;28;20092;-82
2023/12/10 08:40:16;;;;;;;21.10;1.40;;;8.90;91.90;;;;;;5050600;28;20353;-81
2023/12/10 08:42:42;;;;;;;14.48;1.33;;;8.90;90.60;;;;;;5048193;28;20440;-80
2023/12/10 08:45:08;;;;;;;13.00;1.00;;;8.90;90.60;;;;;;5077488;28;20021;-83
2023/12/10 08:47:35;;;;;;;16.90;1.67;;;8.90;90.50;;;;;;5077654;28;20104;-82
2023/12/10 08:50:02;;;;;;;24.40;1.92;;;8.90;91.10;;;;;;5037702;28;20382;-82
2023/12/10 08:52:28;;;;;;;22.27;1.25;;;8.90;90.50;;;;;;5031733;28;21328;-82
2023/12/10 08:54:54;;;;;;;20.63;2.78;;;8.90;91.20;;;;;;5045468;28;20036;-82
2023/12/10 08:57:20;;;;;;;17.23;1.88;;;8.90;91.00;;;;;;5047083;28;20024;-81
2023/12/10 08:59:46;;;;;;;12.57;1.33;;;8.90;91.60;;;;;;5047627;28;20037;-83
2023/12/10 09:02:12;;;;;;;16.83;1.02;;;8.90;91.50;;;;;;5078246;28;20028;-81
2023/12/10 09:04:38;;;;;;;12.75;1.20;;;9.00;90.20;;;;;;5044293;28;20028;-81
2023/12/10 09:07:03;;;;;;;15.50;1.58;;;8.90;90.60;;;;;;5075054;28;20025;-81
2023/12/10 09:09:29;;;;;;;21.88;1.67;;;8.90;91.10;;;;;;5045702;28;20033;-80
2023/12/10 09:11:55;;;;;;;18.30;1.48;;;8.90;91.50;;;;;;5049446;28;20025;-81
2023/12/10 09:14:21;;;;;;;16.65;1.15;;;8.90;91.90;;;;;;5039028;28;20032;-81
2023/12/10 09:16:47;;;;;;;18.33;1.23;;;8.90;92.10;;;;;;5064756;28;20128;-80
2023/12/10 09:19:14;;;;;;;20.58;1.30;;;8.90;92.40;;;;;;5032761;28;20439;-81
2023/12/10 09:21:39;;;;;;;17.25;1.30;;;8.90;91.90;;;;;;5077792;28;20033;-80
2023/12/10 09:24:06;;;;;;;17.00;1.27;;;8.90;91.70;;;;;;5038102;28;20071;-81
2023/12/10 09:26:32;;;;;;;23.70;2.17;;;8.90;91.30;;;;;;5074004;28;20032;-80
2023/12/10 09:28:58;;;;;;;22.73;2.30;;;9.00;90.30;;;;;;5078699;28;20055;-83
2023/12/10 09:31:23;;;;;;;13.32;1.50;;;9.00;90.80;;;;;;5063055;28;20143;-82
2023/12/10 09:33:49;;;;;;;16.92;0.80;;;9.00;90.00;;;;;;5046062;28;20453;-81
2023/12/10 09:36:17;;;;;;;12.60;0.77;;;9.00;89.30;;;;;;5046979;28;20037;-81
2023/12/10 09:38:44;;;;;;;15.48;1.58;;;9.00;90.50;;;;;;5047617;28;20167;-80
2023/12/10 09:41:10;;;;;;;15.05;1.08;;;9.00;91.10;;;;;;5047018;28;20031;-79
2023/12/10 09:43:35;;;;;;;22.75;1.45;;;9.00;90.70;;;;;;5049033;28;20029;-80
2023/12/10 09:46:03;;;;;;;19.05;1.55;;;9.10;88.90;;;;;;5048519;28;20013;-87
2023/12/10 09:48:30;;;;;;;17.38;1.33;;;9.00;90.10;;;;;;5046701;28;20029;-81
2023/12/10 09:50:56;;;;;;;16.38;1.52;;;9.00;90.00;;;;;;5048783;28;20120;-81
2023/12/10 09:53:22;;;;;;;32.42;1.77;;;9.00;90.40;;;;;;5050234;28;20143;-82
2023/12/10 09:55:48;;;;;;;12.63;1.05;;;9.10;90.20;;;;;;5049466;28;20393;-82
2023/12/10 09:58:14;;;;;;;18.60;1.50;;;9.00;90.90;;;;;;5049215;28;20429;-85
2023/12/10 10:00:40;;;;;;;16.27;1.10;;;9.00;91.50;;;;;;5048367;28;20072;-79
2023/12/10 10:03:06;;;;;;;15.80;1.20;;;9.00;90.90;;;;;;5072121;28;20140;-79
2023/12/10 10:05:34;;;;;;;18.48;1.33;;;9.10;90.40;;;;;;5045264;28;20107;-80
2023/12/10 10:08:00;;;;;;;13.63;0.80;;;9.10;90.40;;;;;;5048218;28;20025;-79
2023/12/10 10:10:26;;;;;;;11.57;0.80;;;9.10;91.20;;;;;;5041852;28;20029;-78
2023/12/10 10:12:55;;;;;;;13.48;0.95;;;9.10;90.30;;;;;;5043700;28;20126;-79
2023/12/10 10:15:29;;;;;;;14.32;1.25;;;9.10;90.00;;;;;;5047838;28;20336;-79
2023/12/10 10:17:55;;;;;;;18.20;1.25;;;9.10;89.60;;;;;;5061047;28;20024;-78
2023/12/10 10:20:25;;;;;;;13.77;1.00;;;9.10;89.60;;;;;;5025137;28;20025;-79
2023/12/10 10:22:51;;;;;;;16.30;1.27;;;9.00;90.90;;;;;;5040438;28;20036;-79
2023/12/10 10:25:20;;;;;;;16.92;1.92;;;9.10;90.60;;;;;;5045337;28;20082;-80
2023/12/10 10:27:49;;;;;;;23.83;1.60;;;9.00;91.90;;;;;;5043631;28;20342;-80
2023/12/10 10:30:15;;;;;;;11.60;0.90;;;9.00;90.80;;;;;;5050664;28;20352;-79
2023/12/10 10:32:42;;;;;;;14.30;1.33;;;9.00;91.80;;;;;;5037389;28;20033;-80
2023/12/10 10:35:08;;;;;;;10.85;0.88;;;9.00;91.80;;;;;;5077620;28;20063;-80
2023/12/10 10:37:34;;;;;;;14.45;1.25;;;9.00;92.60;;;;;;5038017;28;20024;-82
2023/12/10 10:40:00;;;;;;;14.57;1.08;;;9.10;93.20;;;;;;5075936;28;20033;-80
2023/12/10 10:42:26;;;;;;;17.58;1.20;;;9.00;93.20;;;;;;5046886;28;20057;-80
2023/12/10 10:44:51;;;;;;;14.13;1.38;;;9.10;93.50;;;;;;5044527;28;20543;-81
2023/12/10 10:47:18;;;;;;;16.60;1.05;;;9.10;94.10;;;;;;5064192;28;20020;-85
2023/12/10 10:49:55;;;;;;;18.30;2.25;;;9.10;93.30;;;;;;5043902;28;20419;-80
2023/12/10 10:52:25;;;;;;;18.45;1.45;;;9.20;93.70;;;;;;5044188;28;20565;-80
2023/12/10 10:54:55;;;;;;;21.00;1.08;;;9.20;93.60;;;;;;5043454;28;20063;-80
2023/12/10 10:57:29;;;;;;;19.80;1.15;;;9.20;93.60;;;;;;5027896;28;20079;-82
2023/12/10 10:59:55;;;;;;;18.75;1.73;;;9.20;93.20;;;;;;5043497;28;20037;-81
2023/12/10 11:02:21;;;;;;;16.50;1.40;;;9.20;93.50;;;;;;5061727;28;20112;-82
2023/12/10 11:04:48;;;;;;;19.35;1.17;;;9.20;94.20;;;;;;5043506;28;20017;-86
2023/12/10 11:07:15;;;;;;;21.90;1.83;;;9.20;94.10;;;;;;5038251;28;20116;-79
2023/12/10 11:10:02;;;;;;;21.60;1.95;;;9.20;92.70;;;;;;5075054;28;20037;-81
2023/12/10 11:12:40;;;;;;;20.25;1.50;;;9.20;94.70;;;;;;5044378;28;20029;-80
2023/12/10 11:15:28;;;;;;;18.45;1.58;;;9.20;94.90;;;;;;5045659;28;20021;-80
2023/12/10 11:17:59;;;;;;;14.68;1.13;;;9.30;95.00;;;;;;5043100;28;21195;-81
2023/12/10 11:20:41;;;;;;;18.45;1.27;;;9.30;96.00;;;;;;5048523;28;20040;-81
2023/12/10 11:23:09;;;;;;;14.05;1.85;;;9.40;96.60;;;;;;5061251;28;20518;-81
2023/12/10 11:25:35;;;;;;;17.25;1.60;;;9.40;96.30;;;;;;5033804;28;20128;-79
2023/12/10 11:28:10;;;;;;;15.50;1.33;;;9.50;95.50;;;;;;5074522;28;20021;-81
2023/12/10 11:30:37;;;;;;;19.13;1.33;;;9.60;96.30;;;;;;5041066;28;20489;-83
2023/12/10 11:33:08;;;;;;;23.15;1.45;;;9.60;94.20;;;;;;5043264;28;20025;-81
2023/12/10 11:35:34;;;;;;;21.75;1.20;;;9.60;95.80;;;;;;5062792;28;20083;-80
2023/12/10 11:38:01;;;;;;;20.67;1.25;;;9.70;94.50;;;;;;5043488;28;20116;-79
2023/12/10 11:40:26;;;;;;;21.38;1.98;;;9.70;94.10;;;;;;5044763;28;20111;-79
2023/12/10 11:42:52;;;;;;;16.67;0.90;;;9.70;93.40;;;;;;5046342;28;20620;-80
2023/12/10 11:45:18;;;;;;;17.55;1.30;;;9.70;94.60;;;;;;5046310;28;20033;-80
2023/12/10 11:47:46;;;;;;;15.63;1.52;;;9.70;93.70;;;;;;5047514;28;20013;-81
2023/12/10 11:50:13;;;;;;;18.00;1.13;;;9.80;95.10;;;;;;5045791;28;20036;-81
2023/12/10 11:52:42;;;;;;;22.02;1.40;;;9.90;92.60;;;;;;5042241;28;20478;-79
2023/12/10 11:55:08;;;;;;;15.30;1.13;;;10.10;92.60;;;;;;5045668;28;20047;-81
2023/12/10 11:57:41;;;;;;;14.23;1.10;;;10.10;93.50;;;;;;5043449;28;20478;-82
2023/12/10 12:00:08;;;;;;;17.00;1.10;;;10.20;91.40;;;;;;5061905;28;20041;-80
2023/12/10 12:02:45;;;;;;;16.45;1.02;;;10.20;92.10;;;;;;5044105;28;20033;-80
2023/12/10 12:05:12;;;;;;;14.00;0.63;;;10.30;91.10;;;;;;5044409;28;20139;-79
2023/12/10 12:07:38;;;;;;;15.60;1.58;;;10.20;89.80;;;;;;5045456;28;20058;-81
2023/12/10 12:10:09;;;;;;;11.88;0.93;;;10.10;90.40;;;;;;5045357;28;20037;-80
2023/12/10 12:12:38;;;;;;;;;;;10.00;90.80;;;;;;5046714;28;20018;-80
2023/12/10 12:15:05;;;;;;;12.33;0.70;;;9.90;90.00;;;;;;5045031;28;19908;-81
2023/12/10 12:17:30;;;;;;;12.68;1.13;;;9.80;90.80;;;;;;5045371;28;20081;-81
2023/12/10 12:20:28;;;;;;;15.65;1.45;;;9.70;91.40;;;;;;5045471;28;20029;-80
2023/12/10 12:22:54;;;;;;;15.65;0.88;;;9.70;90.70;;;;;;5077083;28;20082;-79
2023/12/10 12:25:21;;;;;;;10.38;1.33;;;9.80;90.30;;;;;;5045214;28;20258;-81
2023/12/10 12:27:47;;;;;;;10.82;0.95;;;9.90;92.50;;;;;;5077280;28;20029;-81
2023/12/10 12:30:14;;;;;;;14.75;1.02;;;9.90;91.60;;;;;;5076520;28;20627;-81
2023/12/10 12:32:40;;;;;;;12.07;0.60;;;9.90;88.80;;;;;;5054157;28;20033;-80
2023/12/10 12:35:07;;;;;;;11.27;0.98;;;10.00;90.90;;;;;;5044819;28;20025;-81
2023/12/10 12:37:32;;;;;;;7.97;0.40;;;10.00;89.30;;;;;;5076385;28;20071;-81
2023/12/10 12:39:58;;;;;;;7.10;0.50;;;10.00;91.80;;;;;;5035282;28;20075;-82
2023/12/10 12:42:24;;;;;;;12.75;1.13;;;10.00;90.60;;;;;;5080399;28;20047;-81
2023/12/10 12:44:50;;;;;;;8.05;0.50;;;10.00;90.40;;;;;;5064154;28;20044;-81